sensor_id;sensor_type;location;lat;lon;timestamp;P1;durP1;ratioP1;P2;durP2;ratioP2
67442;SDS011;54311;51.726;5.154;2023-09-30T00:00:56;14.52;;;10.35;;
67442;SDS011;54311;51.726;5.154;2023-09-30T00:03:22;21.45;;;10.27;;
67442;SDS011;54311;51.726;5.154;2023-09-30T00:05:47;10.82;;;8.63;;
67442;SDS011;54311;51.726;5.154;2023-09-30T00:08:12;14.57;;;10.15;;
67442;SDS011;54311;51.726;5.154;2023-09-30T00:10:38;15.30;;;10.60;;
67442;SDS011;54311;51.726;5.154;2023-09-30T00:13:03;15.18;;;10.85;;
67442;SDS011;54311;51.726;5.154;2023-09-30T00:15:31;13.32;;;9.32;;
67442;SDS011;54311;51.726;5.154;2023-09-30T00:17:57;15.23;;;9.80;;
67442;SDS011;54311;51.726;5.154;2023-09-30T00:20:22;16.85;;;9.88;;
67442;SDS011;54311;51.726;5.154;2023-09-30T00:22:48;17.98;;;10.35;;
67442;SDS011;54311;51.726;5.154;2023-09-30T00:25:13;15.48;;;10.43;;
67442;SDS011;54311;51.726;5.154;2023-09-30T00:27:38;27.00;;;11.77;;
67442;SDS011;54311;51.726;5.154;2023-09-30T00:30:04;17.02;;;11.38;;
67442;SDS011;54311;51.726;5.154;2023-09-30T00:32:31;16.00;;;10.73;;
67442;SDS011;54311;51.726;5.154;2023-09-30T00:34:56;12.13;;;10.43;;
67442;SDS011;54311;51.726;5.154;2023-09-30T00:37:22;18.10;;;11.23;;
67442;SDS011;54311;51.726;5.154;2023-09-30T00:39:47;14.35;;;10.93;;
67442;SDS011;54311;51.726;5.154;2023-09-30T00:42:12;15.27;;;11.10;;
67442;SDS011;54311;51.726;5.154;2023-09-30T00:44:38;12.35;;;10.45;;
67442;SDS011;54311;51.726;5.154;2023-09-30T00:47:04;18.48;;;11.75;;
67442;SDS011;54311;51.726;5.154;2023-09-30T00:49:29;18.80;;;11.10;;
67442;SDS011;54311;51.726;5.154;2023-09-30T00:51:55;22.02;;;10.95;;
67442;SDS011;54311;51.726;5.154;2023-09-30T00:54:21;14.55;;;10.20;;
67442;SDS011;54311;51.726;5.154;2023-09-30T00:56:48;16.88;;;11.82;;
67442;SDS011;54311;51.726;5.154;2023-09-30T00:59:14;18.05;;;11.63;;
67442;SDS011;54311;51.726;5.154;2023-09-30T01:01:41;14.02;;;11.77;;
67442;SDS011;54311;51.726;5.154;2023-09-30T01:04:08;17.75;;;12.02;;
67442;SDS011;54311;51.726;5.154;2023-09-30T01:06:34;19.05;;;12.13;;
67442;SDS011;54311;51.726;5.154;2023-09-30T01:09:00;22.23;;;12.73;;
67442;SDS011;54311;51.726;5.154;2023-09-30T01:11:25;15.77;;;12.63;;
67442;SDS011;54311;51.726;5.154;2023-09-30T01:13:51;19.20;;;11.82;;
67442;SDS011;54311;51.726;5.154;2023-09-30T01:16:16;16.17;;;11.65;;
67442;SDS011;54311;51.726;5.154;2023-09-30T01:18:42;17.20;;;12.43;;
67442;SDS011;54311;51.726;5.154;2023-09-30T01:21:07;17.35;;;11.80;;
67442;SDS011;54311;51.726;5.154;2023-09-30T01:23:34;24.67;;;13.30;;
67442;SDS011;54311;51.726;5.154;2023-09-30T01:26:03;25.42;;;12.23;;
67442;SDS011;54311;51.726;5.154;2023-09-30T01:28:33;16.95;;;11.50;;
67442;SDS011;54311;51.726;5.154;2023-09-30T01:30:59;21.40;;;12.05;;
67442;SDS011;54311;51.726;5.154;2023-09-30T01:33:24;18.83;;;12.32;;
67442;SDS011;54311;51.726;5.154;2023-09-30T01:35:50;23.27;;;11.93;;
67442;SDS011;54311;51.726;5.154;2023-09-30T01:38:15;21.75;;;13.20;;
67442;SDS011;54311;51.726;5.154;2023-09-30T01:40:41;19.23;;;13.93;;
67442;SDS011;54311;51.726;5.154;2023-09-30T01:43:07;26.75;;;13.23;;
67442;SDS011;54311;51.726;5.154;2023-09-30T01:45:32;17.55;;;12.45;;
67442;SDS011;54311;51.726;5.154;2023-09-30T01:47:58;17.50;;;12.88;;
67442;SDS011;54311;51.726;5.154;2023-09-30T01:50:23;25.55;;;13.38;;
67442;SDS011;54311;51.726;5.154;2023-09-30T01:52:49;17.23;;;12.25;;
67442;SDS011;54311;51.726;5.154;2023-09-30T01:55:14;19.30;;;12.90;;
67442;SDS011;54311;51.726;5.154;2023-09-30T01:57:39;24.42;;;12.77;;
67442;SDS011;54311;51.726;5.154;2023-09-30T02:00:05;17.35;;;13.15;;
67442;SDS011;54311;51.726;5.154;2023-09-30T02:02:34;19.30;;;13.52;;
67442;SDS011;54311;51.726;5.154;2023-09-30T02:05:00;21.70;;;12.80;;
67442;SDS011;54311;51.726;5.154;2023-09-30T02:07:25;16.48;;;12.27;;
67442;SDS011;54311;51.726;5.154;2023-09-30T02:09:51;20.70;;;13.02;;
67442;SDS011;54311;51.726;5.154;2023-09-30T02:12:16;22.15;;;13.88;;
67442;SDS011;54311;51.726;5.154;2023-09-30T02:14:42;19.35;;;12.68;;
67442;SDS011;54311;51.726;5.154;2023-09-30T02:17:07;18.48;;;12.10;;
67442;SDS011;54311;51.726;5.154;2023-09-30T02:19:35;18.42;;;13.40;;
67442;SDS011;54311;51.726;5.154;2023-09-30T02:22:00;15.68;;;12.57;;
67442;SDS011;54311;51.726;5.154;2023-09-30T02:24:25;19.92;;;13.73;;
67442;SDS011;54311;51.726;5.154;2023-09-30T02:26:51;20.23;;;12.20;;
67442;SDS011;54311;51.726;5.154;2023-09-30T02:29:16;17.02;;;12.52;;
67442;SDS011;54311;51.726;5.154;2023-09-30T02:31:42;15.23;;;12.52;;
67442;SDS011;54311;51.726;5.154;2023-09-30T02:34:07;16.92;;;12.07;;
67442;SDS011;54311;51.726;5.154;2023-09-30T02:36:33;22.10;;;13.43;;
67442;SDS011;54311;51.726;5.154;2023-09-30T02:39:01;14.30;;;11.88;;
67442;SDS011;54311;51.726;5.154;2023-09-30T02:41:26;18.40;;;13.43;;
67442;SDS011;54311;51.726;5.154;2023-09-30T02:43:51;19.98;;;12.25;;
67442;SDS011;54311;51.726;5.154;2023-09-30T02:46:17;17.67;;;12.40;;
67442;SDS011;54311;51.726;5.154;2023-09-30T02:48:42;14.20;;;12.45;;
67442;SDS011;54311;51.726;5.154;2023-09-30T02:51:11;23.13;;;12.07;;
67442;SDS011;54311;51.726;5.154;2023-09-30T02:53:37;16.10;;;12.32;;
67442;SDS011;54311;51.726;5.154;2023-09-30T02:56:02;24.15;;;12.52;;
67442;SDS011;54311;51.726;5.154;2023-09-30T02:58:29;17.08;;;12.20;;
67442;SDS011;54311;51.726;5.154;2023-09-30T03:00:54;26.15;;;14.27;;
67442;SDS011;54311;51.726;5.154;2023-09-30T03:03:20;18.42;;;12.88;;
67442;SDS011;54311;51.726;5.154;2023-09-30T03:05:46;19.70;;;12.30;;
67442;SDS011;54311;51.726;5.154;2023-09-30T03:08:12;19.42;;;13.13;;
67442;SDS011;54311;51.726;5.154;2023-09-30T03:10:37;20.05;;;14.38;;
67442;SDS011;54311;51.726;5.154;2023-09-30T03:13:05;19.58;;;14.85;;
67442;SDS011;54311;51.726;5.154;2023-09-30T03:15:30;15.63;;;13.10;;
67442;SDS011;54311;51.726;5.154;2023-09-30T03:17:57;17.17;;;12.98;;
67442;SDS011;54311;51.726;5.154;2023-09-30T03:20:22;19.63;;;13.60;;
67442;SDS011;54311;51.726;5.154;2023-09-30T03:22:50;18.08;;;13.77;;
67442;SDS011;54311;51.726;5.154;2023-09-30T03:25:16;19.08;;;13.48;;
67442;SDS011;54311;51.726;5.154;2023-09-30T03:27:43;18.20;;;13.95;;
67442;SDS011;54311;51.726;5.154;2023-09-30T03:30:09;19.05;;;14.30;;
67442;SDS011;54311;51.726;5.154;2023-09-30T03:32:37;21.02;;;14.35;;
67442;SDS011;54311;51.726;5.154;2023-09-30T03:35:06;22.17;;;15.32;;
67442;SDS011;54311;51.726;5.154;2023-09-30T03:37:32;21.77;;;14.70;;
67442;SDS011;54311;51.726;5.154;2023-09-30T03:39:58;20.08;;;14.50;;
67442;SDS011;54311;51.726;5.154;2023-09-30T03:42:23;26.23;;;15.60;;
67442;SDS011;54311;51.726;5.154;2023-09-30T03:44:49;19.92;;;14.35;;
67442;SDS011;54311;51.726;5.154;2023-09-30T03:47:15;23.63;;;15.57;;
67442;SDS011;54311;51.726;5.154;2023-09-30T03:49:41;19.23;;;16.17;;
67442;SDS011;54311;51.726;5.154;2023-09-30T03:52:10;21.83;;;15.23;;
67442;SDS011;54311;51.726;5.154;2023-09-30T03:54:36;18.92;;;16.23;;
67442;SDS011;54311;51.726;5.154;2023-09-30T03:57:02;16.10;;;14.48;;
67442;SDS011;54311;51.726;5.154;2023-09-30T03:59:28;23.13;;;15.98;;
67442;SDS011;54311;51.726;5.154;2023-09-30T04:01:54;23.77;;;16.13;;
67442;SDS011;54311;51.726;5.154;2023-09-30T04:04:19;19.00;;;15.65;;
67442;SDS011;54311;51.726;5.154;2023-09-30T04:06:47;20.67;;;16.77;;
67442;SDS011;54311;51.726;5.154;2023-09-30T04:09:16;21.27;;;17.02;;
67442;SDS011;54311;51.726;5.154;2023-09-30T04:11:41;20.60;;;16.48;;
67442;SDS011;54311;51.726;5.154;2023-09-30T04:14:07;17.33;;;15.23;;
67442;SDS011;54311;51.726;5.154;2023-09-30T04:16:33;33.42;;;17.38;;
67442;SDS011;54311;51.726;5.154;2023-09-30T04:18:58;19.75;;;16.35;;
67442;SDS011;54311;51.726;5.154;2023-09-30T04:21:24;25.02;;;17.65;;
67442;SDS011;54311;51.726;5.154;2023-09-30T04:23:49;26.85;;;17.80;;
67442;SDS011;54311;51.726;5.154;2023-09-30T04:26:15;23.70;;;17.17;;
67442;SDS011;54311;51.726;5.154;2023-09-30T04:28:40;23.98;;;17.65;;
67442;SDS011;54311;51.726;5.154;2023-09-30T04:31:06;21.90;;;17.15;;
67442;SDS011;54311;51.726;5.154;2023-09-30T04:33:32;28.17;;;17.02;;
67442;SDS011;54311;51.726;5.154;2023-09-30T04:36:00;22.73;;;16.88;;
67442;SDS011;54311;51.726;5.154;2023-09-30T04:38:26;22.98;;;15.65;;
67442;SDS011;54311;51.726;5.154;2023-09-30T04:40:51;28.42;;;18.02;;
67442;SDS011;54311;51.726;5.154;2023-09-30T04:43:19;24.30;;;17.40;;
67442;SDS011;54311;51.726;5.154;2023-09-30T04:45:44;24.33;;;17.95;;
67442;SDS011;54311;51.726;5.154;2023-09-30T04:48:10;26.38;;;16.70;;
67442;SDS011;54311;51.726;5.154;2023-09-30T04:50:35;23.30;;;17.73;;
67442;SDS011;54311;51.726;5.154;2023-09-30T04:53:00;26.70;;;17.60;;
67442;SDS011;54311;51.726;5.154;2023-09-30T04:55:30;20.88;;;17.17;;
67442;SDS011;54311;51.726;5.154;2023-09-30T04:57:55;21.50;;;16.85;;
67442;SDS011;54311;51.726;5.154;2023-09-30T05:00:20;22.95;;;17.17;;
67442;SDS011;54311;51.726;5.154;2023-09-30T05:02:54;20.73;;;17.90;;
67442;SDS011;54311;51.726;5.154;2023-09-30T05:05:21;21.73;;;18.13;;
67442;SDS011;54311;51.726;5.154;2023-09-30T05:07:46;22.30;;;17.35;;
67442;SDS011;54311;51.726;5.154;2023-09-30T05:10:15;26.38;;;17.35;;
67442;SDS011;54311;51.726;5.154;2023-09-30T05:12:42;23.35;;;17.00;;
67442;SDS011;54311;51.726;5.154;2023-09-30T05:15:10;23.67;;;17.52;;
67442;SDS011;54311;51.726;5.154;2023-09-30T05:17:37;22.98;;;16.95;;
67442;SDS011;54311;51.726;5.154;2023-09-30T05:20:02;24.95;;;18.05;;
67442;SDS011;54311;51.726;5.154;2023-09-30T05:22:32;27.33;;;16.90;;
67442;SDS011;54311;51.726;5.154;2023-09-30T05:24:58;20.02;;;16.80;;
67442;SDS011;54311;51.726;5.154;2023-09-30T05:27:24;19.98;;;16.67;;
67442;SDS011;54311;51.726;5.154;2023-09-30T05:29:49;22.95;;;16.70;;
67442;SDS011;54311;51.726;5.154;2023-09-30T05:32:14;24.95;;;17.23;;
67442;SDS011;54311;51.726;5.154;2023-09-30T05:34:40;19.20;;;16.88;;
67442;SDS011;54311;51.726;5.154;2023-09-30T05:37:05;21.13;;;16.40;;
67442;SDS011;54311;51.726;5.154;2023-09-30T05:39:31;24.38;;;16.95;;
67442;SDS011;54311;51.726;5.154;2023-09-30T05:41:57;20.90;;;17.17;;
67442;SDS011;54311;51.726;5.154;2023-09-30T05:44:22;21.13;;;16.15;;
67442;SDS011;54311;51.726;5.154;2023-09-30T05:46:49;22.67;;;17.80;;
67442;SDS011;54311;51.726;5.154;2023-09-30T05:49:14;23.80;;;16.17;;
67442;SDS011;54311;51.726;5.154;2023-09-30T05:51:40;25.60;;;16.95;;
67442;SDS011;54311;51.726;5.154;2023-09-30T05:54:06;21.98;;;17.30;;
67442;SDS011;54311;51.726;5.154;2023-09-30T05:56:34;22.63;;;16.90;;
67442;SDS011;54311;51.726;5.154;2023-09-30T05:59:02;28.17;;;18.15;;
67442;SDS011;54311;51.726;5.154;2023-09-30T06:01:28;21.20;;;17.00;;
67442;SDS011;54311;51.726;5.154;2023-09-30T06:03:53;20.73;;;16.45;;
67442;SDS011;54311;51.726;5.154;2023-09-30T06:06:18;21.55;;;17.25;;
67442;SDS011;54311;51.726;5.154;2023-09-30T06:08:44;22.48;;;17.98;;
67442;SDS011;54311;51.726;5.154;2023-09-30T06:11:16;24.17;;;15.95;;
67442;SDS011;54311;51.726;5.154;2023-09-30T06:13:47;19.38;;;15.98;;
67442;SDS011;54311;51.726;5.154;2023-09-30T06:16:13;22.10;;;17.05;;
67442;SDS011;54311;51.726;5.154;2023-09-30T06:18:39;23.38;;;16.95;;
67442;SDS011;54311;51.726;5.154;2023-09-30T06:21:04;23.77;;;17.63;;
67442;SDS011;54311;51.726;5.154;2023-09-30T06:23:30;22.92;;;17.40;;
67442;SDS011;54311;51.726;5.154;2023-09-30T06:25:56;22.38;;;17.38;;
67442;SDS011;54311;51.726;5.154;2023-09-30T06:28:22;24.02;;;17.48;;
67442;SDS011;54311;51.726;5.154;2023-09-30T06:30:51;25.40;;;18.00;;
67442;SDS011;54311;51.726;5.154;2023-09-30T06:33:17;21.20;;;16.92;;
67442;SDS011;54311;51.726;5.154;2023-09-30T06:35:42;25.92;;;19.05;;
67442;SDS011;54311;51.726;5.154;2023-09-30T06:38:15;28.58;;;18.13;;
67442;SDS011;54311;51.726;5.154;2023-09-30T06:40:42;26.15;;;19.33;;
67442;SDS011;54311;51.726;5.154;2023-09-30T06:43:08;28.58;;;19.55;;
67442;SDS011;54311;51.726;5.154;2023-09-30T06:45:33;29.73;;;18.70;;
67442;SDS011;54311;51.726;5.154;2023-09-30T06:47:59;25.50;;;19.20;;
67442;SDS011;54311;51.726;5.154;2023-09-30T06:50:24;33.55;;;19.92;;
67442;SDS011;54311;51.726;5.154;2023-09-30T06:52:49;31.20;;;19.42;;
67442;SDS011;54311;51.726;5.154;2023-09-30T06:55:15;29.90;;;19.83;;
67442;SDS011;54311;51.726;5.154;2023-09-30T06:57:41;26.65;;;19.52;;
67442;SDS011;54311;51.726;5.154;2023-09-30T07:00:10;27.67;;;20.15;;
67442;SDS011;54311;51.726;5.154;2023-09-30T07:02:37;33.67;;;19.95;;
67442;SDS011;54311;51.726;5.154;2023-09-30T07:05:09;27.05;;;18.90;;
67442;SDS011;54311;51.726;5.154;2023-09-30T07:07:36;32.10;;;19.52;;
67442;SDS011;54311;51.726;5.154;2023-09-30T07:10:01;30.05;;;19.95;;
67442;SDS011;54311;51.726;5.154;2023-09-30T07:12:27;25.17;;;18.83;;
67442;SDS011;54311;51.726;5.154;2023-09-30T07:14:52;27.67;;;19.98;;
67442;SDS011;54311;51.726;5.154;2023-09-30T07:17:18;30.35;;;19.83;;
67442;SDS011;54311;51.726;5.154;2023-09-30T07:19:43;32.05;;;21.30;;
67442;SDS011;54311;51.726;5.154;2023-09-30T07:22:09;29.98;;;21.25;;
67442;SDS011;54311;51.726;5.154;2023-09-30T07:24:34;30.13;;;22.95;;
67442;SDS011;54311;51.726;5.154;2023-09-30T07:26:59;33.13;;;22.17;;
67442;SDS011;54311;51.726;5.154;2023-09-30T07:29:25;28.80;;;20.75;;
67442;SDS011;54311;51.726;5.154;2023-09-30T07:31:53;38.28;;;21.38;;
67442;SDS011;54311;51.726;5.154;2023-09-30T07:34:18;37.28;;;22.42;;
67442;SDS011;54311;51.726;5.154;2023-09-30T07:36:43;33.97;;;20.42;;
67442;SDS011;54311;51.726;5.154;2023-09-30T07:39:09;32.15;;;21.38;;
67442;SDS011;54311;51.726;5.154;2023-09-30T07:41:34;39.42;;;24.38;;
67442;SDS011;54311;51.726;5.154;2023-09-30T07:44:01;33.20;;;22.98;;
67442;SDS011;54311;51.726;5.154;2023-09-30T07:46:28;31.98;;;22.20;;
67442;SDS011;54311;51.726;5.154;2023-09-30T07:48:53;35.42;;;22.55;;
67442;SDS011;54311;51.726;5.154;2023-09-30T07:51:20;35.03;;;23.02;;
67442;SDS011;54311;51.726;5.154;2023-09-30T07:53:45;42.83;;;24.45;;
67442;SDS011;54311;51.726;5.154;2023-09-30T07:56:11;38.55;;;24.38;;
67442;SDS011;54311;51.726;5.154;2023-09-30T07:58:36;39.25;;;26.60;;
67442;SDS011;54311;51.726;5.154;2023-09-30T08:01:01;34.50;;;24.85;;
67442;SDS011;54311;51.726;5.154;2023-09-30T08:03:27;43.65;;;27.25;;
67442;SDS011;54311;51.726;5.154;2023-09-30T08:05:52;39.83;;;27.38;;
67442;SDS011;54311;51.726;5.154;2023-09-30T08:08:17;47.10;;;28.58;;
67442;SDS011;54311;51.726;5.154;2023-09-30T08:10:43;40.67;;;27.40;;
67442;SDS011;54311;51.726;5.154;2023-09-30T08:13:08;51.78;;;29.92;;
67442;SDS011;54311;51.726;5.154;2023-09-30T08:15:35;45.22;;;29.48;;
67442;SDS011;54311;51.726;5.154;2023-09-30T08:18:01;49.45;;;30.40;;
67442;SDS011;54311;51.726;5.154;2023-09-30T08:20:29;53.65;;;30.17;;
67442;SDS011;54311;51.726;5.154;2023-09-30T08:22:55;50.65;;;30.60;;
67442;SDS011;54311;51.726;5.154;2023-09-30T08:25:20;43.80;;;28.75;;
67442;SDS011;54311;51.726;5.154;2023-09-30T08:27:46;46.25;;;28.20;;
67442;SDS011;54311;51.726;5.154;2023-09-30T08:30:14;46.90;;;28.20;;
67442;SDS011;54311;51.726;5.154;2023-09-30T08:32:40;47.05;;;28.05;;
67442;SDS011;54311;51.726;5.154;2023-09-30T08:35:05;52.30;;;29.05;;
67442;SDS011;54311;51.726;5.154;2023-09-30T08:37:32;45.60;;;25.67;;
67442;SDS011;54311;51.726;5.154;2023-09-30T08:39:57;45.35;;;26.75;;
67442;SDS011;54311;51.726;5.154;2023-09-30T08:42:23;46.38;;;26.33;;
67442;SDS011;54311;51.726;5.154;2023-09-30T08:44:54;42.95;;;24.92;;
67442;SDS011;54311;51.726;5.154;2023-09-30T08:47:20;53.67;;;26.40;;
67442;SDS011;54311;51.726;5.154;2023-09-30T08:49:47;43.13;;;25.98;;
67442;SDS011;54311;51.726;5.154;2023-09-30T08:52:14;40.35;;;25.45;;
67442;SDS011;54311;51.726;5.154;2023-09-30T08:54:40;38.17;;;23.17;;
67442;SDS011;54311;51.726;5.154;2023-09-30T08:57:05;39.97;;;23.67;;
67442;SDS011;54311;51.726;5.154;2023-09-30T08:59:32;39.33;;;21.92;;
67442;SDS011;54311;51.726;5.154;2023-09-30T09:02:00;37.80;;;23.52;;
67442;SDS011;54311;51.726;5.154;2023-09-30T09:04:26;46.22;;;23.00;;
67442;SDS011;54311;51.726;5.154;2023-09-30T09:06:53;42.30;;;23.02;;
67442;SDS011;54311;51.726;5.154;2023-09-30T09:09:20;40.55;;;22.75;;
67442;SDS011;54311;51.726;5.154;2023-09-30T09:11:47;38.28;;;22.40;;
67442;SDS011;54311;51.726;5.154;2023-09-30T09:14:12;52.13;;;23.65;;
67442;SDS011;54311;51.726;5.154;2023-09-30T09:16:50;46.38;;;24.95;;
67442;SDS011;54311;51.726;5.154;2023-09-30T09:19:17;45.67;;;23.52;;
67442;SDS011;54311;51.726;5.154;2023-09-30T09:22:01;38.55;;;21.52;;
67442;SDS011;54311;51.726;5.154;2023-09-30T09:24:37;42.42;;;21.63;;
67442;SDS011;54311;51.726;5.154;2023-09-30T09:27:11;38.15;;;19.75;;
67442;SDS011;54311;51.726;5.154;2023-09-30T09:29:37;36.70;;;18.85;;
67442;SDS011;54311;51.726;5.154;2023-09-30T09:32:07;40.42;;;20.05;;
67442;SDS011;54311;51.726;5.154;2023-09-30T09:34:34;40.47;;;21.48;;
67442;SDS011;54311;51.726;5.154;2023-09-30T09:37:00;36.75;;;19.77;;
67442;SDS011;54311;51.726;5.154;2023-09-30T09:39:37;33.20;;;20.33;;
67442;SDS011;54311;51.726;5.154;2023-09-30T09:42:03;32.67;;;19.88;;
67442;SDS011;54311;51.726;5.154;2023-09-30T09:44:28;37.13;;;19.25;;
67442;SDS011;54311;51.726;5.154;2023-09-30T09:46:54;39.08;;;21.80;;
67442;SDS011;54311;51.726;5.154;2023-09-30T09:49:22;33.42;;;19.42;;
67442;SDS011;54311;51.726;5.154;2023-09-30T09:51:48;34.38;;;20.35;;
67442;SDS011;54311;51.726;5.154;2023-09-30T09:54:14;37.17;;;21.15;;
67442;SDS011;54311;51.726;5.154;2023-09-30T09:56:41;38.08;;;20.42;;
67442;SDS011;54311;51.726;5.154;2023-09-30T09:59:11;34.65;;;20.95;;
67442;SDS011;54311;51.726;5.154;2023-09-30T10:01:37;33.60;;;19.88;;
67442;SDS011;54311;51.726;5.154;2023-09-30T10:04:04;37.58;;;20.33;;
67442;SDS011;54311;51.726;5.154;2023-09-30T10:06:31;39.45;;;21.13;;
67442;SDS011;54311;51.726;5.154;2023-09-30T10:09:03;48.35;;;21.88;;
67442;SDS011;54311;51.726;5.154;2023-09-30T10:11:30;42.58;;;22.92;;
67442;SDS011;54311;51.726;5.154;2023-09-30T10:13:56;34.95;;;20.30;;
67442;SDS011;54311;51.726;5.154;2023-09-30T10:19:16;27.60;;;19.05;;
67442;SDS011;54311;51.726;5.154;2023-09-30T10:24:56;31.88;;;20.42;;
67442;SDS011;54311;51.726;5.154;2023-09-30T10:29:47;37.70;;;22.60;;
67442;SDS011;54311;51.726;5.154;2023-09-30T10:32:14;36.35;;;21.02;;
67442;SDS011;54311;51.726;5.154;2023-09-30T10:34:46;41.83;;;23.20;;
67442;SDS011;54311;51.726;5.154;2023-09-30T10:37:22;37.35;;;21.10;;
67442;SDS011;54311;51.726;5.154;2023-09-30T10:40:06;35.15;;;19.65;;
67442;SDS011;54311;51.726;5.154;2023-09-30T10:42:47;35.67;;;22.23;;
67442;SDS011;54311;51.726;5.154;2023-09-30T10:50:50;30.80;;;17.17;;
67442;SDS011;54311;51.726;5.154;2023-09-30T10:53:25;29.30;;;16.67;;
67442;SDS011;54311;51.726;5.154;2023-09-30T10:55:55;20.20;;;13.32;;
67442;SDS011;54311;51.726;5.154;2023-09-30T10:58:22;24.33;;;14.55;;
67442;SDS011;54311;51.726;5.154;2023-09-30T11:01:07;24.23;;;14.57;;
67442;SDS011;54311;51.726;5.154;2023-09-30T11:03:33;19.35;;;11.27;;
67442;SDS011;54311;51.726;5.154;2023-09-30T11:05:58;23.38;;;12.88;;
67442;SDS011;54311;51.726;5.154;2023-09-30T11:08:24;22.52;;;13.43;;
67442;SDS011;54311;51.726;5.154;2023-09-30T11:10:53;30.02;;;13.60;;
67442;SDS011;54311;51.726;5.154;2023-09-30T11:13:19;28.52;;;14.70;;
67442;SDS011;54311;51.726;5.154;2023-09-30T11:15:45;24.90;;;14.85;;
67442;SDS011;54311;51.726;5.154;2023-09-30T11:18:14;22.13;;;13.90;;
67442;SDS011;54311;51.726;5.154;2023-09-30T11:20:41;23.52;;;14.00;;
67442;SDS011;54311;51.726;5.154;2023-09-30T11:23:07;25.92;;;13.43;;
67442;SDS011;54311;51.726;5.154;2023-09-30T11:25:35;22.75;;;13.25;;
67442;SDS011;54311;51.726;5.154;2023-09-30T11:28:15;23.80;;;12.48;;
67442;SDS011;54311;51.726;5.154;2023-09-30T11:30:57;16.92;;;9.95;;
67442;SDS011;54311;51.726;5.154;2023-09-30T11:33:24;20.50;;;12.23;;
67442;SDS011;54311;51.726;5.154;2023-09-30T11:36:03;21.77;;;11.10;;
67442;SDS011;54311;51.726;5.154;2023-09-30T11:38:30;24.30;;;11.25;;
67442;SDS011;54311;51.726;5.154;2023-09-30T11:41:00;21.77;;;11.60;;
67442;SDS011;54311;51.726;5.154;2023-09-30T11:43:27;19.60;;;11.55;;
67442;SDS011;54311;51.726;5.154;2023-09-30T11:46:03;22.60;;;12.43;;
67442;SDS011;54311;51.726;5.154;2023-09-30T11:48:33;24.40;;;12.98;;
67442;SDS011;54311;51.726;5.154;2023-09-30T11:51:20;19.77;;;13.00;;
67442;SDS011;54311;51.726;5.154;2023-09-30T11:53:45;21.63;;;12.38;;
67442;SDS011;54311;51.726;5.154;2023-09-30T11:56:12;24.88;;;11.70;;
67442;SDS011;54311;51.726;5.154;2023-09-30T11:58:39;25.65;;;11.93;;
67442;SDS011;54311;51.726;5.154;2023-09-30T12:01:04;20.58;;;11.30;;
67442;SDS011;54311;51.726;5.154;2023-09-30T12:03:31;19.67;;;12.88;;
67442;SDS011;54311;51.726;5.154;2023-09-30T12:06:04;23.60;;;13.93;;
67442;SDS011;54311;51.726;5.154;2023-09-30T12:08:33;22.88;;;13.48;;
67442;SDS011;54311;51.726;5.154;2023-09-30T12:10:58;20.20;;;12.95;;
67442;SDS011;54311;51.726;5.154;2023-09-30T12:13:24;18.95;;;11.13;;
67442;SDS011;54311;51.726;5.154;2023-09-30T12:15:50;20.50;;;11.30;;
67442;SDS011;54311;51.726;5.154;2023-09-30T12:18:18;17.83;;;10.55;;
67442;SDS011;54311;51.726;5.154;2023-09-30T12:20:48;19.85;;;10.40;;
67442;SDS011;54311;51.726;5.154;2023-09-30T12:23:14;18.02;;;10.07;;
67442;SDS011;54311;51.726;5.154;2023-09-30T12:25:39;16.48;;;10.00;;
67442;SDS011;54311;51.726;5.154;2023-09-30T12:28:05;18.67;;;9.70;;
67442;SDS011;54311;51.726;5.154;2023-09-30T12:30:30;17.98;;;10.25;;
67442;SDS011;54311;51.726;5.154;2023-09-30T12:32:57;15.68;;;9.98;;
67442;SDS011;54311;51.726;5.154;2023-09-30T12:35:22;18.20;;;11.07;;
67442;SDS011;54311;51.726;5.154;2023-09-30T12:37:48;15.70;;;9.52;;
67442;SDS011;54311;51.726;5.154;2023-09-30T12:40:13;14.80;;;8.27;;
67442;SDS011;54311;51.726;5.154;2023-09-30T12:42:41;16.13;;;8.68;;
67442;SDS011;54311;51.726;5.154;2023-09-30T12:45:10;21.42;;;8.40;;
67442;SDS011;54311;51.726;5.154;2023-09-30T12:47:36;14.60;;;7.13;;
67442;SDS011;54311;51.726;5.154;2023-09-30T12:50:01;12.45;;;7.43;;
67442;SDS011;54311;51.726;5.154;2023-09-30T12:52:28;14.32;;;6.80;;
67442;SDS011;54311;51.726;5.154;2023-09-30T12:54:55;13.68;;;7.72;;
67442;SDS011;54311;51.726;5.154;2023-09-30T12:57:20;20.52;;;8.05;;
67442;SDS011;54311;51.726;5.154;2023-09-30T12:59:46;14.77;;;6.55;;
67442;SDS011;54311;51.726;5.154;2023-09-30T13:02:12;16.20;;;7.22;;
67442;SDS011;54311;51.726;5.154;2023-09-30T13:04:37;18.13;;;7.22;;
67442;SDS011;54311;51.726;5.154;2023-09-30T13:07:08;14.13;;;6.97;;
67442;SDS011;54311;51.726;5.154;2023-09-30T13:09:36;12.70;;;6.32;;
67442;SDS011;54311;51.726;5.154;2023-09-30T13:12:03;12.98;;;6.72;;
67442;SDS011;54311;51.726;5.154;2023-09-30T13:14:28;11.57;;;6.28;;
67442;SDS011;54311;51.726;5.154;2023-09-30T13:16:54;14.23;;;6.72;;
67442;SDS011;54311;51.726;5.154;2023-09-30T13:19:19;13.95;;;7.07;;
67442;SDS011;54311;51.726;5.154;2023-09-30T13:21:46;16.63;;;6.60;;
67442;SDS011;54311;51.726;5.154;2023-09-30T13:24:12;12.38;;;7.35;;
67442;SDS011;54311;51.726;5.154;2023-09-30T13:26:38;11.00;;;6.25;;
67442;SDS011;54311;51.726;5.154;2023-09-30T13:29:03;12.50;;;6.88;;
67442;SDS011;54311;51.726;5.154;2023-09-30T13:31:30;9.88;;;6.13;;
67442;SDS011;54311;51.726;5.154;2023-09-30T13:33:56;16.38;;;7.32;;
67442;SDS011;54311;51.726;5.154;2023-09-30T13:36:21;13.05;;;6.90;;
67442;SDS011;54311;51.726;5.154;2023-09-30T13:38:46;12.23;;;7.40;;
67442;SDS011;54311;51.726;5.154;2023-09-30T13:41:12;14.32;;;7.20;;
67442;SDS011;54311;51.726;5.154;2023-09-30T13:43:37;14.45;;;6.63;;
67442;SDS011;54311;51.726;5.154;2023-09-30T13:46:04;13.90;;;7.05;;
67442;SDS011;54311;51.726;5.154;2023-09-30T13:48:31;14.73;;;7.50;;
67442;SDS011;54311;51.726;5.154;2023-09-30T13:51:07;14.48;;;6.88;;
67442;SDS011;54311;51.726;5.154;2023-09-30T13:53:35;16.23;;;6.72;;
67442;SDS011;54311;51.726;5.154;2023-09-30T13:56:01;16.33;;;7.28;;
67442;SDS011;54311;51.726;5.154;2023-09-30T13:58:28;12.82;;;7.10;;
67442;SDS011;54311;51.726;5.154;2023-09-30T14:00:53;12.30;;;6.15;;
67442;SDS011;54311;51.726;5.154;2023-09-30T14:03:19;16.23;;;6.38;;
67442;SDS011;54311;51.726;5.154;2023-09-30T14:05:45;11.80;;;6.03;;
67442;SDS011;54311;51.726;5.154;2023-09-30T14:08:11;15.13;;;6.70;;
67442;SDS011;54311;51.726;5.154;2023-09-30T14:10:37;11.77;;;5.75;;
67442;SDS011;54311;51.726;5.154;2023-09-30T14:13:02;14.75;;;6.93;;
67442;SDS011;54311;51.726;5.154;2023-09-30T14:15:28;14.88;;;7.15;;
67442;SDS011;54311;51.726;5.154;2023-09-30T14:17:54;12.77;;;6.20;;
67442;SDS011;54311;51.726;5.154;2023-09-30T14:20:20;20.73;;;7.00;;
67442;SDS011;54311;51.726;5.154;2023-09-30T14:22:46;15.13;;;6.85;;
67442;SDS011;54311;51.726;5.154;2023-09-30T14:25:12;17.35;;;6.35;;
67442;SDS011;54311;51.726;5.154;2023-09-30T14:27:38;13.23;;;6.82;;
67442;SDS011;54311;51.726;5.154;2023-09-30T14:30:05;10.57;;;6.22;;
67442;SDS011;54311;51.726;5.154;2023-09-30T14:32:31;13.75;;;7.18;;
67442;SDS011;54311;51.726;5.154;2023-09-30T14:34:57;16.73;;;6.47;;